createdAt,value
2022-12-29T00:00:15.874Z,9.667909
2022-12-29T00:01:15.771Z,9.668053
2022-12-29T00:02:15.945Z,9.667931
2022-12-29T00:03:15.858Z,9.668056
2022-12-29T00:04:15.922Z,9.668015
2022-12-29T00:05:15.740Z,9.668034
2022-12-29T00:06:15.742Z,9.668035
2022-12-29T00:07:15.714Z,9.668050
2022-12-29T00:08:15.694Z,9.668115
2022-12-29T00:09:15.696Z,9.668096
2022-12-29T00:10:15.707Z,9.668068
2022-12-29T00:11:15.691Z,9.667984
2022-12-29T00:12:15.712Z,9.667987
2022-12-29T00:13:15.694Z,9.668013
2022-12-29T00:14:47.616Z,9.668068
2022-12-29T00:15:15.674Z,9.667982
2022-12-29T00:16:15.701Z,9.667961
2022-12-29T00:17:15.676Z,9.667975
2022-12-29T00:18:15.637Z,9.667950
2022-12-29T00:19:15.629Z,9.667911
2022-12-29T00:20:15.609Z,9.667954
2022-12-29T00:21:15.608Z,9.667976
2022-12-29T00:22:15.590Z,9.667956
2022-12-29T00:23:15.635Z,9.667949
2022-12-29T00:24:15.620Z,9.667933
2022-12-29T00:25:15.639Z,9.667899
2022-12-29T00:26:15.582Z,9.667965
2022-12-29T00:27:15.593Z,9.668018
2022-12-29T00:28:15.566Z,9.667968
2022-12-29T00:29:15.555Z,9.667955
2022-12-29T00:30:15.557Z,9.667946
2022-12-29T00:31:15.561Z,9.667972
2022-12-29T00:32:15.519Z,9.667933
2022-12-29T00:33:15.537Z,9.667936
2022-12-29T00:34:15.542Z,9.667981
2022-12-29T00:35:15.587Z,9.667956
2022-12-29T00:36:15.524Z,9.667909
2022-12-29T00:37:15.497Z,9.667980
2022-12-29T00:38:15.482Z,9.667974
2022-12-29T00:39:15.533Z,9.667979
2022-12-29T00:40:15.484Z,9.667923
2022-12-29T00:41:15.470Z,9.667947
2022-12-29T00:42:15.449Z,9.667995
2022-12-29T00:43:15.445Z,9.667976
2022-12-29T00:44:15.543Z,9.667942
2022-12-29T00:45:15.497Z,9.667899
2022-12-29T00:46:19.696Z,9.667969
2022-12-29T00:47:16.463Z,9.668007
2022-12-29T00:48:15.450Z,9.668041
2022-12-29T00:49:15.437Z,9.668009
2022-12-29T00:50:15.479Z,9.668048
2022-12-29T00:51:15.388Z,9.667976
2022-12-29T00:52:15.527Z,9.668001
2022-12-29T00:53:15.363Z,9.667966
2022-12-29T00:54:15.372Z,9.667978
2022-12-29T00:55:15.349Z,9.667899
2022-12-29T00:56:15.362Z,9.667967
2022-12-29T00:57:15.393Z,9.668035
2022-12-29T00:58:15.341Z,9.668096
2022-12-29T00:59:15.323Z,9.668070
2022-12-29T01:00:15.321Z,9.668045
2022-12-29T01:01:15.387Z,9.668038
2022-12-29T01:02:15.497Z,9.668004
2022-12-29T01:03:15.380Z,9.667999
2022-12-29T01:04:15.277Z,9.667984
2022-12-29T01:05:15.308Z,9.668003
2022-12-29T01:06:15.260Z,9.668001
2022-12-29T01:07:15.287Z,9.667993
2022-12-29T01:08:15.290Z,9.668007
2022-12-29T01:09:15.267Z,9.667979
2022-12-29T01:10:15.412Z,9.667954
2022-12-29T01:11:15.940Z,9.667954
2022-12-29T01:12:15.217Z,9.667945
2022-12-29T01:13:15.201Z,9.667944
2022-12-29T01:14:15.358Z,9.667949
2022-12-29T01:15:15.250Z,9.667923
2022-12-29T01:16:15.257Z,9.667995
2022-12-29T01:17:15.265Z,9.668055
2022-12-29T01:18:15.171Z,9.668007
2022-12-29T01:19:15.189Z,9.667996
2022-12-29T01:20:15.172Z,9.668014
2022-12-29T01:21:15.121Z,9.667973
2022-12-29T01:22:16.162Z,9.667996
2022-12-29T01:23:15.170Z,9.668035
2022-12-29T01:24:15.133Z,9.667994
2022-12-29T01:25:15.139Z,9.668023
2022-12-29T01:26:15.165Z,9.667997
2022-12-29T01:27:15.192Z,9.668032
2022-12-29T01:28:15.096Z,9.668038
2022-12-29T01:29:16.266Z,9.668058
2022-12-29T01:30:15.100Z,9.668058
2022-12-29T01:31:15.089Z,9.668012
2022-12-29T01:32:15.077Z,9.668021
2022-12-29T01:33:15.091Z,9.668022
2022-12-29T01:34:15.081Z,9.667969
2022-12-29T01:35:15.083Z,9.667999
2022-12-29T01:36:15.062Z,9.668039
2022-12-29T01:37:15.113Z,9.668009
2022-12-29T01:38:15.015Z,9.668101
2022-12-29T01:39:15.009Z,9.668101
2022-12-29T01:40:15.024Z,9.668091
2022-12-29T01:41:15.009Z,9.667997
2022-12-29T01:42:14.999Z,9.668028
2022-12-29T01:43:15.003Z,9.667944
2022-12-29T01:44:14.994Z,9.667997
2022-12-29T01:45:14.988Z,9.667973
2022-12-29T01:46:14.990Z,9.668095
2022-12-29T01:47:14.939Z,9.668142
2022-12-29T01:48:14.947Z,9.668114
2022-12-29T01:49:14.949Z,9.668042
2022-12-29T01:50:14.952Z,9.668054
2022-12-29T01:51:14.919Z,9.668109
2022-12-29T01:52:14.924Z,9.667992
2022-12-29T01:53:14.929Z,9.668065
2022-12-29T01:54:15.013Z,9.668135
2022-12-29T01:55:14.882Z,9.668191
2022-12-29T01:56:14.884Z,9.668129
2022-12-29T01:57:14.880Z,9.668148
2022-12-29T01:58:14.853Z,9.667938
2022-12-29T01:59:14.859Z,9.667868
2022-12-29T02:00:14.875Z,9.668015
2022-12-29T02:01:14.882Z,9.668066
2022-12-29T02:02:14.926Z,9.667995
2022-12-29T02:03:15.619Z,9.668036
2022-12-29T02:04:14.900Z,9.668074
2022-12-29T02:05:15.639Z,9.668052
2022-12-29T02:06:14.837Z,9.668026
2022-12-29T02:07:14.831Z,9.668056
2022-12-29T02:08:14.785Z,9.668095
2022-12-29T02:09:46.718Z,9.668085
2022-12-29T02:10:14.797Z,9.668050
2022-12-29T02:11:14.762Z,9.668085
2022-12-29T02:12:14.781Z,9.668062
2022-12-29T02:13:14.806Z,9.668021
2022-12-29T02:14:14.785Z,9.668020
2022-12-29T02:15:14.738Z,9.668006
2022-12-29T02:16:14.827Z,9.668050
2022-12-29T02:17:14.750Z,9.668049
2022-12-29T02:18:14.735Z,9.668079
2022-12-29T02:19:14.709Z,9.668071
2022-12-29T02:20:14.702Z,9.668068
2022-12-29T02:21:14.706Z,9.668016
2022-12-29T02:22:14.685Z,9.668021
2022-12-29T02:23:14.694Z,9.668013
2022-12-29T02:24:14.666Z,9.668050
2022-12-29T02:25:14.677Z,9.668035
2022-12-29T02:26:14.648Z,9.668020
2022-12-29T02:27:14.678Z,9.668071
2022-12-29T02:28:14.647Z,9.668069
2022-12-29T02:29:14.629Z,9.667973
2022-12-29T02:30:14.631Z,9.667959
2022-12-29T02:31:14.663Z,9.668073
2022-12-29T02:32:14.655Z,9.668034
2022-12-29T02:33:14.607Z,9.667997
2022-12-29T02:34:14.595Z,9.668049
2022-12-29T02:35:14.582Z,9.668057
2022-12-29T02:36:14.575Z,9.667960
2022-12-29T02:37:14.584Z,9.668003
2022-12-29T02:38:14.589Z,9.668081
2022-12-29T02:39:14.554Z,9.668062
2022-12-29T02:40:14.564Z,9.668039
2022-12-29T02:41:14.577Z,9.668077
2022-12-29T02:42:14.552Z,9.668067
2022-12-29T02:43:15.408Z,9.667970
2022-12-29T02:44:14.538Z,9.667973
2022-12-29T02:45:14.511Z,9.668006
2022-12-29T02:46:14.535Z,9.667997
2022-12-29T02:47:14.576Z,9.667992
2022-12-29T02:48:14.556Z,9.667974
2022-12-29T02:49:14.493Z,9.667990
2022-12-29T02:50:14.469Z,9.668038
2022-12-29T02:51:14.466Z,9.668002
2022-12-29T02:52:14.464Z,9.668070
2022-12-29T02:53:14.443Z,9.668028
2022-12-29T02:54:14.427Z,9.667999
2022-12-29T02:55:14.452Z,9.668015
2022-12-29T02:56:14.481Z,9.668062
2022-12-29T02:57:14.437Z,9.668069
2022-12-29T02:58:14.405Z,9.668097
2022-12-29T02:59:14.403Z,9.668021
2022-12-29T03:00:14.424Z,9.668072
2022-12-29T03:01:14.479Z,9.668026
2022-12-29T03:02:14.443Z,9.668071
2022-12-29T03:03:14.476Z,9.668062
2022-12-29T03:04:14.371Z,9.668032
2022-12-29T03:05:14.389Z,9.668049
2022-12-29T03:06:14.366Z,9.667948
2022-12-29T03:07:14.332Z,9.668043
2022-12-29T03:08:14.320Z,9.668063
2022-12-29T03:09:18.829Z,9.668030
2022-12-29T03:10:15.336Z,9.668020
2022-12-29T03:11:14.317Z,9.668049
2022-12-29T03:12:14.305Z,9.668046
2022-12-29T03:13:14.279Z,9.668052
2022-12-29T03:14:14.303Z,9.668081
2022-12-29T03:15:14.307Z,9.668038
2022-12-29T03:16:14.343Z,9.668025
2022-12-29T03:17:14.445Z,9.667982
2022-12-29T03:18:14.242Z,9.667997
2022-12-29T03:19:14.347Z,9.667953
2022-12-29T03:20:14.251Z,9.667919
2022-12-29T03:21:14.244Z,9.667995
2022-12-29T03:22:14.250Z,9.668026
2022-12-29T03:23:14.234Z,9.667981
2022-12-29T03:24:14.261Z,9.667955
2022-12-29T03:25:14.206Z,9.667990
2022-12-29T03:26:14.214Z,9.667995
2022-12-29T03:27:14.217Z,9.667948
2022-12-29T03:28:14.190Z,9.668017
2022-12-29T03:29:14.182Z,9.667969
2022-12-29T03:30:14.194Z,9.668000
2022-12-29T03:31:14.221Z,9.667994
2022-12-29T03:32:14.194Z,9.667940
2022-12-29T03:33:14.223Z,9.668006
2022-12-29T03:34:14.229Z,9.668038
2022-12-29T03:35:14.146Z,9.667990
2022-12-29T03:36:14.119Z,9.668054
2022-12-29T03:37:14.132Z,9.667945
2022-12-29T03:38:14.107Z,9.667944
2022-12-29T03:39:14.094Z,9.667963
2022-12-29T03:40:14.167Z,9.667949
2022-12-29T03:41:14.086Z,9.667947
2022-12-29T03:42:14.068Z,9.668016
2022-12-29T03:43:14.205Z,9.667876
2022-12-29T03:44:14.064Z,9.667883
2022-12-29T03:45:14.063Z,9.667924
2022-12-29T03:46:14.112Z,9.667978
2022-12-29T03:47:14.031Z,9.667993
2022-12-29T04:07:45.141Z,9.668056
2022-12-29T04:08:45.172Z,9.668036
2022-12-29T04:09:46.172Z,9.668088
2022-12-29T04:10:45.181Z,9.668086
2022-12-29T04:11:45.145Z,9.667968
2022-12-29T04:12:45.116Z,9.668018
2022-12-29T04:13:45.119Z,9.667937
2022-12-29T04:14:45.146Z,9.667923
2022-12-29T04:15:45.150Z,9.668038
2022-12-29T04:16:45.098Z,9.668056
2022-12-29T04:17:45.104Z,9.667998
2022-12-29T04:18:45.055Z,9.667978
2022-12-29T04:19:45.062Z,9.668042
2022-12-29T04:20:45.068Z,9.668039
2022-12-29T04:21:45.048Z,9.668016
2022-12-29T04:22:45.055Z,9.667940
2022-12-29T04:23:45.028Z,9.668010
2022-12-29T04:24:45.021Z,9.668065
2022-12-29T04:25:45.029Z,9.667999
2022-12-29T04:26:45.027Z,9.668007
2022-12-29T04:27:45.010Z,9.667966
2022-12-29T04:28:44.989Z,9.667967
2022-12-29T04:29:45.002Z,9.668057
2022-12-29T04:30:44.980Z,9.668006
2022-12-29T04:31:45.121Z,9.668134
2022-12-29T04:32:44.966Z,9.668067
2022-12-29T04:33:44.976Z,9.668069
2022-12-29T04:34:44.952Z,9.667990
2022-12-29T04:35:44.926Z,9.668004
2022-12-29T04:36:44.953Z,9.668001
2022-12-29T04:37:44.921Z,9.668031
2022-12-29T04:38:44.931Z,9.668014
2022-12-29T04:39:44.910Z,9.668016
2022-12-29T04:40:44.909Z,9.668008
2022-12-29T04:41:44.889Z,9.668009
2022-12-29T04:42:44.904Z,9.668014
2022-12-29T04:43:44.896Z,9.668020
2022-12-29T04:44:45.333Z,9.668023
2022-12-29T04:45:45.887Z,9.667973
2022-12-29T04:46:44.889Z,9.667998
2022-12-29T04:47:44.892Z,9.668017
2022-12-29T04:48:44.852Z,9.668011
2022-12-29T04:49:44.841Z,9.668063
2022-12-29T04:50:44.827Z,9.668027
2022-12-29T04:51:44.842Z,9.668072
2022-12-29T04:52:44.823Z,9.668073
2022-12-29T04:53:44.847Z,9.668085
2022-12-29T04:54:44.822Z,9.668038
2022-12-29T04:55:44.774Z,9.668110
2022-12-29T04:56:44.819Z,9.668075
2022-12-29T04:57:44.773Z,9.667991
2022-12-29T04:58:44.759Z,9.668084
2022-12-29T04:59:44.784Z,9.668099
2022-12-29T05:00:44.733Z,9.668041
2022-12-29T05:01:44.870Z,9.668056
2022-12-29T05:02:44.867Z,9.668057
2022-12-29T05:03:44.794Z,9.668047
2022-12-29T05:04:44.720Z,9.668076
2022-12-29T05:05:44.724Z,9.668063
2022-12-29T05:06:44.713Z,9.668058
2022-12-29T05:07:44.745Z,9.668041
2022-12-29T05:08:44.703Z,9.668068
2022-12-29T05:09:44.672Z,9.668026
2022-12-29T05:10:44.696Z,9.668011
2022-12-29T05:11:44.661Z,9.668021
2022-12-29T05:12:44.640Z,9.668027
2022-12-29T05:13:44.646Z,9.668037
2022-12-29T05:14:44.628Z,9.668031
2022-12-29T05:15:44.689Z,9.668043
2022-12-29T05:16:44.622Z,9.668029
2022-12-29T05:17:44.642Z,9.668038
2022-12-29T05:18:44.597Z,9.668029
2022-12-29T05:19:44.600Z,9.668013
2022-12-29T05:20:44.621Z,9.668034
2022-12-29T05:21:44.578Z,9.668057
2022-12-29T05:22:44.648Z,9.668035
2022-12-29T05:23:44.575Z,9.668019
2022-12-29T05:24:44.553Z,9.668020
2022-12-29T05:25:44.537Z,9.668026
2022-12-29T05:26:44.546Z,9.668061
2022-12-29T05:27:44.556Z,9.668058
2022-12-29T05:28:44.560Z,9.668049
2022-12-29T05:29:44.543Z,9.668052
2022-12-29T05:30:44.549Z,9.668050
2022-12-29T05:31:44.580Z,9.668058
2022-12-29T05:32:44.517Z,9.668053
2022-12-29T05:33:44.475Z,9.668041
2022-12-29T05:34:44.474Z,9.668026
2022-12-29T05:35:44.512Z,9.668061
2022-12-29T05:36:44.494Z,9.668056
2022-12-29T05:37:44.478Z,9.668067
2022-12-29T05:38:44.434Z,9.668057
2022-12-29T05:39:44.432Z,9.668072
2022-12-29T05:40:44.452Z,9.668055
2022-12-29T05:41:44.429Z,9.668062
2022-12-29T05:42:44.460Z,9.668097
2022-12-29T05:43:44.461Z,9.668105
2022-12-29T05:44:44.469Z,9.668090
2022-12-29T05:45:44.442Z,9.668036
2022-12-29T05:46:44.437Z,9.668039
2022-12-29T05:47:44.375Z,9.668053
2022-12-29T05:48:44.411Z,9.668058
2022-12-29T05:49:44.384Z,9.668025
2022-12-29T05:50:44.351Z,9.668044
2022-12-29T05:51:44.336Z,9.668085
2022-12-29T05:52:44.343Z,9.668022
2022-12-29T05:53:44.357Z,9.668047
2022-12-29T05:54:44.319Z,9.668068
2022-12-29T05:55:48.496Z,9.668010
2022-12-29T05:56:45.304Z,9.668017
2022-12-29T05:57:44.300Z,9.668054
2022-12-29T05:58:44.300Z,9.668016
2022-12-29T05:59:44.301Z,9.668037
2022-12-29T06:00:44.276Z,9.668056
2022-12-29T06:01:44.338Z,9.668001
2022-12-29T06:02:44.497Z,9.668005
2022-12-29T06:03:48.159Z,9.667983
2022-12-29T06:04:45.249Z,9.668024
2022-12-29T06:05:44.232Z,9.668056
2022-12-29T06:06:44.216Z,9.668081
2022-12-29T06:07:44.223Z,9.668036
2022-12-29T06:08:44.217Z,9.668013
2022-12-29T06:09:44.187Z,9.667996
2022-12-29T06:10:44.217Z,9.667941
2022-12-29T06:11:44.181Z,9.667939
2022-12-29T06:12:44.188Z,9.667967
2022-12-29T06:13:44.154Z,9.667948
2022-12-29T06:14:44.173Z,9.667902
2022-12-29T06:15:44.160Z,9.667926
2022-12-29T06:16:44.216Z,9.667983
2022-12-29T06:17:44.128Z,9.668028
2022-12-29T06:18:44.121Z,9.667955
2022-12-29T06:19:44.113Z,9.667978
2022-12-29T06:20:44.122Z,9.667953
2022-12-29T06:21:44.091Z,9.667975
2022-12-29T06:22:44.095Z,9.667938
2022-12-29T06:23:44.082Z,9.667951
2022-12-29T06:24:44.070Z,9.667956
2022-12-29T06:25:44.103Z,9.667967
2022-12-29T06:26:44.093Z,9.668022
2022-12-29T06:27:44.054Z,9.667967
2022-12-29T06:28:44.075Z,9.668002
2022-12-29T06:29:44.044Z,9.668046
2022-12-29T06:30:44.038Z,9.667948
2022-12-29T06:31:44.134Z,9.667931
2022-12-29T06:32:44.006Z,9.667919
2022-12-29T06:33:48.250Z,9.667860
2022-12-29T06:34:44.996Z,9.667885
2022-12-29T06:35:43.991Z,9.667962
2022-12-29T06:36:44.039Z,9.667975
2022-12-29T06:37:44.038Z,9.667995
2022-12-29T06:38:43.977Z,9.668037
2022-12-29T06:39:43.957Z,9.668023
2022-12-29T06:40:43.951Z,9.668000
2022-12-29T06:41:43.951Z,9.668062
2022-12-29T06:42:43.925Z,9.668036
2022-12-29T06:43:43.923Z,9.668012
2022-12-29T06:44:43.916Z,9.668036
2022-12-29T06:45:43.928Z,9.668010
2022-12-29T06:46:43.907Z,9.668045
2022-12-29T06:47:43.896Z,9.668032
2022-12-29T06:48:43.874Z,9.668048
2022-12-29T06:49:43.903Z,9.668040
2022-12-29T06:50:43.839Z,9.668040
2022-12-29T06:51:43.888Z,9.668020
2022-12-29T06:52:43.861Z,9.668035
2022-12-29T06:53:43.846Z,9.668045
2022-12-29T06:54:43.837Z,9.668050
2022-12-29T06:55:43.850Z,9.668054
2022-12-29T06:56:43.852Z,9.668043
2022-12-29T06:57:43.827Z,9.668044
2022-12-29T06:58:43.794Z,9.668034
2022-12-29T06:59:43.793Z,9.668058
2022-12-29T07:00:43.786Z,9.668069
2022-12-29T07:01:43.908Z,9.668025
2022-12-29T07:02:43.893Z,9.668003
2022-12-29T07:03:43.765Z,9.668017
2022-12-29T07:04:43.809Z,9.668029
2022-12-29T07:05:43.758Z,9.668038
2022-12-29T07:06:43.743Z,9.668041
2022-12-29T07:07:44.306Z,9.668027
2022-12-29T07:08:43.758Z,9.668020
2022-12-29T07:09:43.719Z,9.668022
2022-12-29T07:10:43.720Z,9.668060
2022-12-29T07:11:43.704Z,9.667996
2022-12-29T07:12:43.703Z,9.668049
2022-12-29T07:13:43.704Z,9.668032
2022-12-29T07:14:43.859Z,9.668063
2022-12-29T07:15:43.726Z,9.668077
2022-12-29T07:16:43.713Z,9.668058
2022-12-29T07:17:43.655Z,9.668041
2022-12-29T07:18:43.685Z,9.668041
2022-12-29T07:19:43.706Z,9.668047
2022-12-29T07:20:43.640Z,9.668050
2022-12-29T07:21:46.325Z,9.668060
2022-12-29T07:22:43.616Z,9.668023
2022-12-29T07:23:43.627Z,9.668049
2022-12-29T07:24:43.622Z,9.668004
2022-12-29T07:25:43.599Z,9.668005
2022-12-29T07:26:43.605Z,9.668011
2022-12-29T07:27:43.576Z,9.668008
2022-12-29T07:28:43.585Z,9.667996
2022-12-29T07:29:43.585Z,9.668009
2022-12-29T07:30:43.576Z,9.668023
2022-12-29T07:31:43.562Z,9.668035
2022-12-29T07:32:44.530Z,9.668018
2022-12-29T07:33:43.558Z,9.668063
2022-12-29T07:34:43.591Z,9.668030
2022-12-29T07:35:43.530Z,9.668045
2022-12-29T07:36:43.530Z,9.668032
2022-12-29T07:37:43.509Z,9.668034
2022-12-29T07:38:43.556Z,9.668021
2022-12-29T07:39:43.512Z,9.668013
2022-12-29T07:40:43.493Z,9.667996
2022-12-29T07:41:43.476Z,9.668012
2022-12-29T07:42:43.483Z,9.667994
2022-12-29T07:43:43.459Z,9.667993
2022-12-29T07:44:43.452Z,9.667971
2022-12-29T07:45:43.514Z,9.667998
2022-12-29T07:46:54.968Z,9.667997
2022-12-29T07:47:44.433Z,9.667985
2022-12-29T07:48:43.421Z,9.667977
2022-12-29T07:49:43.409Z,9.667999
2022-12-29T07:50:43.456Z,9.668034
2022-12-29T07:51:43.447Z,9.668029
2022-12-29T07:52:43.394Z,9.667955
2022-12-29T07:53:43.395Z,9.667961
2022-12-29T07:54:43.379Z,9.668024
2022-12-29T07:55:43.357Z,9.667979
2022-12-29T07:56:43.419Z,9.668005
2022-12-29T07:57:43.385Z,9.668009
2022-12-29T07:58:43.346Z,9.667988
2022-12-29T07:59:43.325Z,9.667989
2022-12-29T08:00:43.322Z,9.668015
2022-12-29T08:01:43.447Z,9.667947
2022-12-29T08:02:43.424Z,9.667986
2022-12-29T08:03:43.345Z,9.667956
2022-12-29T08:04:43.291Z,9.668062
2022-12-29T08:05:44.340Z,9.668002
2022-12-29T08:06:43.279Z,9.667988
2022-12-29T08:07:43.281Z,9.667991
2022-12-29T08:08:43.293Z,9.667983
2022-12-29T08:14:02.978Z,9.667929
2022-12-29T08:15:02.944Z,9.667973
2022-12-29T08:16:04.622Z,9.667922
2022-12-29T08:17:02.988Z,9.667921
2022-12-29T08:18:02.930Z,9.667962
2022-12-29T08:19:02.939Z,9.667969
2022-12-29T08:20:02.950Z,9.667980
2022-12-29T08:21:02.909Z,9.668029
2022-12-29T08:22:02.921Z,9.668035
2022-12-29T08:23:02.940Z,9.667967
2022-12-29T08:24:02.896Z,9.668033
2022-12-29T08:25:02.881Z,9.668044
2022-12-29T08:26:02.868Z,9.668053
2022-12-29T08:27:11.838Z,9.667997
2022-12-29T08:28:04.859Z,9.667952
2022-12-29T08:29:02.844Z,9.667966
2022-12-29T08:30:03.023Z,9.667991
2022-12-29T08:31:02.852Z,9.668002
2022-12-29T08:32:02.937Z,9.668009
2022-12-29T08:33:02.819Z,9.668047
2022-12-29T08:34:02.829Z,9.667978
2022-12-29T08:35:02.847Z,9.667970
2022-12-29T08:36:02.771Z,9.667989
2022-12-29T08:37:02.817Z,9.668013
2022-12-29T08:38:02.780Z,9.668036
2022-12-29T08:39:02.781Z,9.667878
2022-12-29T08:40:02.770Z,9.667959
2022-12-29T08:41:02.738Z,9.668062
2022-12-29T08:42:02.758Z,9.668025
2022-12-29T08:43:02.721Z,9.667985
2022-12-29T08:44:02.749Z,9.668035
2022-12-29T08:45:02.801Z,9.668124
2022-12-29T08:46:02.793Z,9.668022
2022-12-29T08:47:02.747Z,9.667989
2022-12-29T08:48:02.698Z,9.667989
2022-12-29T08:49:03.470Z,9.667990
2022-12-29T08:50:02.696Z,9.668020
2022-12-29T08:51:02.708Z,9.667983
2022-12-29T08:52:02.653Z,9.667929
2022-12-29T08:53:02.661Z,9.667961
2022-12-29T08:54:02.652Z,9.667978
2022-12-29T08:55:02.620Z,9.668035
2022-12-29T08:56:05.422Z,9.668004
2022-12-29T08:57:03.669Z,9.667976
2022-12-29T08:58:02.641Z,9.668003
2022-12-29T08:59:02.608Z,9.668031
2022-12-29T09:00:02.589Z,9.668065
2022-12-29T09:01:02.635Z,9.668027
2022-12-29T09:02:02.909Z,9.668035
2022-12-29T09:03:02.780Z,9.668084
2022-12-29T09:04:18.603Z,9.668000
2022-12-29T09:05:04.577Z,9.668026
2022-12-29T09:06:02.582Z,9.667994
2022-12-29T09:07:02.531Z,9.667978
2022-12-29T09:08:02.575Z,9.667991
2022-12-29T09:09:02.522Z,9.667945
2022-12-29T09:10:02.519Z,9.667970
2022-12-29T09:11:02.522Z,9.668002
2022-12-29T09:12:02.508Z,9.667963
2022-12-29T09:13:02.497Z,9.667993
2022-12-29T09:14:02.516Z,9.668019
2022-12-29T09:15:02.471Z,9.667981
2022-12-29T09:16:02.491Z,9.667953
2022-12-29T09:17:02.466Z,9.667994
2022-12-29T09:18:02.471Z,9.668022
2022-12-29T09:19:02.449Z,9.667958
2022-12-29T09:20:02.448Z,9.667978
2022-12-29T09:21:02.451Z,9.667936
2022-12-29T09:22:02.481Z,9.667992
2022-12-29T09:23:02.437Z,9.667957
2022-12-29T09:24:02.407Z,9.667882
2022-12-29T09:25:02.384Z,9.667931
2022-12-29T09:26:02.415Z,9.667752
2022-12-29T09:27:02.419Z,9.667840
2022-12-29T09:28:02.364Z,9.667699
2022-12-29T09:29:02.355Z,9.667759
2022-12-29T09:30:02.353Z,9.667668
2022-12-29T09:31:02.464Z,9.667811
2022-12-29T09:32:02.336Z,9.667888
2022-12-29T09:33:02.347Z,9.667850
2022-12-29T09:34:02.339Z,9.667899
2022-12-29T09:35:02.325Z,9.667882
2022-12-29T09:36:02.312Z,9.667781
2022-12-29T09:37:02.302Z,9.667830
2022-12-29T09:38:02.298Z,9.667863
2022-12-29T09:39:02.312Z,9.667834
2022-12-29T09:40:02.264Z,9.667802
2022-12-29T09:41:02.308Z,9.667809
2022-12-29T09:42:02.250Z,9.667931
2022-12-29T09:43:02.250Z,9.667910
2022-12-29T09:44:02.271Z,9.667947
2022-12-29T09:45:02.231Z,9.667948
2022-12-29T09:46:02.239Z,9.667961
2022-12-29T09:47:02.293Z,9.667924
2022-12-29T09:48:08.149Z,9.667953
2022-12-29T09:49:04.234Z,9.667979
2022-12-29T09:50:02.217Z,9.667994
2022-12-29T09:51:02.222Z,9.667989
2022-12-29T09:52:02.179Z,9.668007
2022-12-29T09:53:02.233Z,9.668018
2022-12-29T09:54:02.181Z,9.667984
2022-12-29T09:55:06.328Z,9.668000
2022-12-29T09:56:04.200Z,9.667999
2022-12-29T09:57:02.164Z,9.667952
2022-12-29T09:58:02.144Z,9.667965
2022-12-29T09:59:02.148Z,9.667958
2022-12-29T10:00:02.251Z,9.667951
2022-12-29T10:01:02.171Z,9.667950
2022-12-29T10:02:02.255Z,9.667976
2022-12-29T10:03:02.275Z,9.668013
2022-12-29T10:04:02.094Z,9.668039
2022-12-29T10:05:02.154Z,9.667982
2022-12-29T10:06:02.115Z,9.667868
2022-12-29T10:07:29.053Z,9.667943
2022-12-29T10:08:04.106Z,9.667995
2022-12-29T10:09:02.065Z,9.667966
2022-12-29T10:10:02.129Z,9.667886
2022-12-29T10:11:02.080Z,9.667925
2022-12-29T10:12:02.046Z,9.667826
2022-12-29T10:13:02.025Z,9.667712
2022-12-29T10:14:02.015Z,9.667693
2022-12-29T10:15:02.031Z,9.667605
2022-12-29T10:16:02.070Z,9.667545
2022-12-29T10:17:02.028Z,9.667527
2022-12-29T10:18:01.996Z,9.667788
2022-12-29T10:19:02.028Z,9.667886
2022-12-29T10:20:02.015Z,9.667671
2022-12-29T10:21:01.952Z,9.667802
2022-12-29T10:22:01.983Z,9.667700
2022-12-29T10:23:01.957Z,9.667684
2022-12-29T10:24:01.946Z,9.667865
2022-12-29T10:25:01.931Z,9.667902
2022-12-29T10:26:01.955Z,9.667928
2022-12-29T10:27:02.947Z,9.667903
2022-12-29T10:28:01.908Z,9.667949
2022-12-29T10:29:01.897Z,9.667899
2022-12-29T10:30:01.925Z,9.667985
2022-12-29T10:31:08.330Z,9.667990
2022-12-29T10:32:03.964Z,9.667902
2022-12-29T10:33:01.895Z,9.667753
2022-12-29T10:34:01.859Z,9.667708
2022-12-29T10:35:01.868Z,9.667627
2022-12-29T10:36:01.833Z,9.667628
2022-12-29T10:37:01.877Z,9.667839
2022-12-29T10:38:01.872Z,9.667932
2022-12-29T10:39:01.818Z,9.667975
2022-12-29T10:40:01.813Z,9.667986
2022-12-29T10:41:01.836Z,9.667974
2022-12-29T10:42:01.821Z,9.667985
2022-12-29T10:43:01.828Z,9.667974
2022-12-29T10:44:01.806Z,9.667986
2022-12-29T10:45:01.798Z,9.667975
2022-12-29T10:46:01.809Z,9.667980
2022-12-29T10:47:01.769Z,9.667968
2022-12-29T10:48:01.793Z,9.667963
2022-12-29T10:49:01.797Z,9.667995
2022-12-29T10:50:01.773Z,9.667976
2022-12-29T10:51:02.401Z,9.667974
2022-12-29T10:52:02.782Z,9.668041
2022-12-29T10:53:01.758Z,9.668025
2022-12-29T10:54:01.743Z,9.668019
2022-12-29T10:55:01.719Z,9.667979
2022-12-29T10:56:01.742Z,9.668007
2022-12-29T10:57:01.714Z,9.668006
2022-12-29T10:58:01.722Z,9.668007
2022-12-29T10:59:01.654Z,9.667982
2022-12-29T11:00:01.677Z,9.667988
2022-12-29T11:01:01.715Z,9.668015
2022-12-29T11:02:01.884Z,9.668027
2022-12-29T11:03:01.757Z,9.668041
2022-12-29T11:04:01.629Z,9.668003
2022-12-29T11:05:01.628Z,9.667996
2022-12-29T11:06:01.609Z,9.667992
2022-12-29T11:07:01.619Z,9.667973
2022-12-29T11:08:01.610Z,9.668048
2022-12-29T11:09:01.637Z,9.667978
2022-12-29T11:10:01.591Z,9.668068
2022-12-29T11:11:01.587Z,9.668031
2022-12-29T11:12:01.565Z,9.668046
2022-12-29T11:13:01.605Z,9.668082
2022-12-29T11:14:01.546Z,9.668073
2022-12-29T11:15:02.432Z,9.668075
2022-12-29T11:16:01.656Z,9.668040
2022-12-29T11:17:01.532Z,9.667873
2022-12-29T11:18:01.601Z,9.667943
2022-12-29T11:19:01.608Z,9.668059
2022-12-29T11:20:01.497Z,9.667933
2022-12-29T11:21:01.525Z,9.667934
2022-12-29T11:22:02.456Z,9.667994
2022-12-29T11:23:01.515Z,9.667991
2022-12-29T11:24:01.520Z,9.668036
2022-12-29T11:25:01.498Z,9.668034
2022-12-29T11:26:01.471Z,9.667984
2022-12-29T11:27:01.456Z,9.668016
2022-12-29T11:28:02.492Z,9.667976
2022-12-29T11:29:01.451Z,9.667988
2022-12-29T11:30:01.526Z,9.668007
2022-12-29T11:31:01.425Z,9.668029
2022-12-29T11:32:01.454Z,9.667997
2022-12-29T11:33:01.435Z,9.667987
2022-12-29T11:34:01.413Z,9.667991
2022-12-29T11:35:01.411Z,9.667974
2022-12-29T11:36:01.454Z,9.667968
2022-12-29T11:37:01.368Z,9.668038
2022-12-29T11:38:01.406Z,9.668060
2022-12-29T11:39:01.424Z,9.667975
2022-12-29T11:40:01.367Z,9.667922
2022-12-29T11:41:01.408Z,9.667873
2022-12-29T11:42:01.363Z,9.667879
2022-12-29T11:43:01.322Z,9.667931
2022-12-29T11:44:01.308Z,9.668038
2022-12-29T11:45:05.079Z,9.667983
2022-12-29T11:46:02.351Z,9.667975
2022-12-29T11:47:01.282Z,9.667992
2022-12-29T11:48:01.310Z,9.667968
2022-12-29T11:49:01.281Z,9.668015
2022-12-29T11:50:01.312Z,9.668088
2022-12-29T11:51:01.327Z,9.668027
2022-12-29T11:52:01.258Z,9.667947
2022-12-29T11:53:01.243Z,9.667932
2022-12-29T11:54:01.285Z,9.668037
2022-12-29T11:55:01.253Z,9.667974
2022-12-29T11:56:01.336Z,9.667962
2022-12-29T11:57:01.213Z,9.667981
2022-12-29T11:58:01.243Z,9.668038
2022-12-29T11:59:01.195Z,9.667968
2022-12-29T12:00:01.215Z,9.667942
2022-12-29T12:01:01.187Z,9.667981
2022-12-29T12:02:01.283Z,9.667979
2022-12-29T12:03:01.207Z,9.667903
2022-12-29T12:04:01.194Z,9.667982
2022-12-29T12:05:01.158Z,9.667934
2022-12-29T12:06:01.133Z,9.667944
2022-12-29T12:07:01.178Z,9.668009
2022-12-29T12:08:01.168Z,9.667935